sensor_id;sensor_type;location;lat;lon;timestamp;temperature;humidity
8269;DHT22;4174;48.304;16.364;2023-06-14T00:04:24;14.40;99.90
8269;DHT22;4174;48.304;16.364;2023-06-14T00:10:28;14.40;99.90
8269;DHT22;4174;48.304;16.364;2023-06-14T00:16:32;14.30;99.90
8269;DHT22;4174;48.304;16.364;2023-06-14T00:22:35;14.20;99.90
8269;DHT22;4174;48.304;16.364;2023-06-14T00:28:39;14.20;99.90
8269;DHT22;4174;48.304;16.364;2023-06-14T00:34:42;14.10;99.90
8269;DHT22;4174;48.304;16.364;2023-06-14T00:40:46;14.00;99.90
8269;DHT22;4174;48.304;16.364;2023-06-14T00:46:48;14.00;99.90
8269;DHT22;4174;48.304;16.364;2023-06-14T00:52:52;13.90;99.90
8269;DHT22;4174;48.304;16.364;2023-06-14T00:58:56;13.90;99.90
8269;DHT22;4174;48.304;16.364;2023-06-14T01:05:00;13.90;99.90
8269;DHT22;4174;48.304;16.364;2023-06-14T01:11:06;13.80;99.90
8269;DHT22;4174;48.304;16.364;2023-06-14T01:17:07;13.80;99.90
8269;DHT22;4174;48.304;16.364;2023-06-14T01:23:11;13.90;99.90
8269;DHT22;4174;48.304;16.364;2023-06-14T01:29:15;13.80;99.90
8269;DHT22;4174;48.304;16.364;2023-06-14T01:35:17;13.80;99.90
8269;DHT22;4174;48.304;16.364;2023-06-14T01:41:20;13.80;99.90
8269;DHT22;4174;48.304;16.364;2023-06-14T01:47:23;13.70;99.90
8269;DHT22;4174;48.304;16.364;2023-06-14T01:53:27;13.70;99.90
8269;DHT22;4174;48.304;16.364;2023-06-14T01:59:30;13.70;99.90
8269;DHT22;4174;48.304;16.364;2023-06-14T02:05:34;13.60;99.90
8269;DHT22;4174;48.304;16.364;2023-06-14T02:11:38;13.60;99.90
8269;DHT22;4174;48.304;16.364;2023-06-14T02:17:41;13.70;99.90
8269;DHT22;4174;48.304;16.364;2023-06-14T02:23:44;13.70;99.90
8269;DHT22;4174;48.304;16.364;2023-06-14T02:29:48;13.80;99.90
8269;DHT22;4174;48.304;16.364;2023-06-14T02:35:51;13.90;99.90
8269;DHT22;4174;48.304;16.364;2023-06-14T02:41:55;13.90;99.90
8269;DHT22;4174;48.304;16.364;2023-06-14T02:47:59;14.00;99.90
8269;DHT22;4174;48.304;16.364;2023-06-14T02:54:03;14.10;99.90
8269;DHT22;4174;48.304;16.364;2023-06-14T03:00:09;14.10;99.90
8269;DHT22;4174;48.304;16.364;2023-06-14T03:06:15;14.10;99.90
8269;DHT22;4174;48.304;16.364;2023-06-14T03:12:19;14.10;99.90
8269;DHT22;4174;48.304;16.364;2023-06-14T03:18:23;14.20;99.90
8269;DHT22;4174;48.304;16.364;2023-06-14T03:24:26;14.10;99.90
8269;DHT22;4174;48.304;16.364;2023-06-14T03:30:30;14.20;99.90
8269;DHT22;4174;48.304;16.364;2023-06-14T03:36:32;14.30;99.90
8269;DHT22;4174;48.304;16.364;2023-06-14T03:42:36;14.30;99.90
8269;DHT22;4174;48.304;16.364;2023-06-14T03:48:40;14.40;99.90
8269;DHT22;4174;48.304;16.364;2023-06-14T03:54:43;14.50;99.90
8269;DHT22;4174;48.304;16.364;2023-06-14T04:00:48;14.70;99.90
8269;DHT22;4174;48.304;16.364;2023-06-14T04:06:51;14.70;99.90
8269;DHT22;4174;48.304;16.364;2023-06-14T04:12:56;14.90;99.90
8269;DHT22;4174;48.304;16.364;2023-06-14T04:19:00;15.20;99.90
8269;DHT22;4174;48.304;16.364;2023-06-14T04:25:04;15.80;99.90
8269;DHT22;4174;48.304;16.364;2023-06-14T04:31:08;15.70;99.90
8269;DHT22;4174;48.304;16.364;2023-06-14T04:37:12;16.10;99.90
8269;DHT22;4174;48.304;16.364;2023-06-14T04:43:16;16.40;99.90
8269;DHT22;4174;48.304;16.364;2023-06-14T04:49:19;16.70;99.90
8269;DHT22;4174;48.304;16.364;2023-06-14T04:55:22;16.90;99.90
8269;DHT22;4174;48.304;16.364;2023-06-14T05:01:26;17.30;99.90
8269;DHT22;4174;48.304;16.364;2023-06-14T05:07:29;17.70;99.90
8269;DHT22;4174;48.304;16.364;2023-06-14T05:13:34;18.80;99.90
8269;DHT22;4174;48.304;16.364;2023-06-14T05:19:37;18.80;99.90
8269;DHT22;4174;48.304;16.364;2023-06-14T05:25:42;19.60;99.90
8269;DHT22;4174;48.304;16.364;2023-06-14T05:31:43;21.40;99.90
8269;DHT22;4174;48.304;16.364;2023-06-14T05:37:47;20.40;99.90
8269;DHT22;4174;48.304;16.364;2023-06-14T05:43:52;25.60;95.70
8269;DHT22;4174;48.304;16.364;2023-06-14T05:49:55;25.50;95.60
8269;DHT22;4174;48.304;16.364;2023-06-14T05:55:58;29.30;74.90
8269;DHT22;4174;48.304;16.364;2023-06-14T06:02:02;31.50;56.80
8269;DHT22;4174;48.304;16.364;2023-06-14T06:08:06;33.00;49.00
8269;DHT22;4174;48.304;16.364;2023-06-14T06:14:09;33.80;47.00
8269;DHT22;4174;48.304;16.364;2023-06-14T06:20:13;33.70;45.30
8269;DHT22;4174;48.304;16.364;2023-06-14T06:26:17;33.70;45.20
8269;DHT22;4174;48.304;16.364;2023-06-14T06:32:21;33.20;43.30
8269;DHT22;4174;48.304;16.364;2023-06-14T06:38:24;33.10;43.20
8269;DHT22;4174;48.304;16.364;2023-06-14T06:44:27;32.70;40.70
8269;DHT22;4174;48.304;16.364;2023-06-14T06:50:31;31.60;40.70
8269;DHT22;4174;48.304;16.364;2023-06-14T06:56:35;30.90;43.80
8269;DHT22;4174;48.304;16.364;2023-06-14T07:02:38;29.40;45.70
8269;DHT22;4174;48.304;16.364;2023-06-14T07:08:41;28.00;46.70
8269;DHT22;4174;48.304;16.364;2023-06-14T07:14:45;27.60;48.90
8269;DHT22;4174;48.304;16.364;2023-06-14T07:20:50;28.40;48.10
8269;DHT22;4174;48.304;16.364;2023-06-14T07:26:53;28.40;48.10
8269;DHT22;4174;48.304;16.364;2023-06-14T15:19:08;22.90;62.10
8269;DHT22;4174;48.304;16.364;2023-06-14T15:25:15;23.30;60.60
8269;DHT22;4174;48.304;16.364;2023-06-14T15:31:22;23.80;57.70
8269;DHT22;4174;48.304;16.364;2023-06-14T15:37:28;23.80;57.70
8269;DHT22;4174;48.304;16.364;2023-06-14T15:43:49;23.80;56.90
8269;DHT22;4174;48.304;16.364;2023-06-14T15:49:58;24.00;57.40
8269;DHT22;4174;48.304;16.364;2023-06-14T15:56:07;24.30;57.30
8269;DHT22;4174;48.304;16.364;2023-06-14T16:02:12;24.20;57.10
8269;DHT22;4174;48.304;16.364;2023-06-14T16:08:17;24.20;61.20
8269;DHT22;4174;48.304;16.364;2023-06-14T16:14:25;23.40;71.90
8269;DHT22;4174;48.304;16.364;2023-06-14T16:20:33;23.30;72.50
8269;DHT22;4174;48.304;16.364;2023-06-14T16:26:38;23.30;75.60
8269;DHT22;4174;48.304;16.364;2023-06-14T16:32:44;23.10;75.80
8269;DHT22;4174;48.304;16.364;2023-06-14T16:38:52;22.70;74.80
8269;DHT22;4174;48.304;16.364;2023-06-14T16:44:58;22.50;77.70
8269;DHT22;4174;48.304;16.364;2023-06-14T16:51:05;22.60;77.70
8269;DHT22;4174;48.304;16.364;2023-06-14T16:57:11;22.40;77.10
8269;DHT22;4174;48.304;16.364;2023-06-14T17:03:17;22.10;78.70
8269;DHT22;4174;48.304;16.364;2023-06-14T17:09:23;21.70;78.30
8269;DHT22;4174;48.304;16.364;2023-06-14T17:15:47;21.70;78.20
8269;DHT22;4174;48.304;16.364;2023-06-14T17:34:50;21.60;79.40
8269;DHT22;4174;48.304;16.364;2023-06-14T17:40:56;21.50;85.60
8269;DHT22;4174;48.304;16.364;2023-06-14T17:47:02;21.40;85.40
8269;DHT22;4174;48.304;16.364;2023-06-14T17:53:11;21.40;81.00
8269;DHT22;4174;48.304;16.364;2023-06-14T17:59:19;21.50;84.10
8269;DHT22;4174;48.304;16.364;2023-06-14T18:05:25;21.60;84.60
8269;DHT22;4174;48.304;16.364;2023-06-14T18:11:33;21.60;84.60
8269;DHT22;4174;48.304;16.364;2023-06-14T18:17:49;21.50;87.20
8269;DHT22;4174;48.304;16.364;2023-06-14T18:23:53;21.40;89.20
8269;DHT22;4174;48.304;16.364;2023-06-14T18:30:04;21.20;90.70
8269;DHT22;4174;48.304;16.364;2023-06-14T18:36:12;21.10;91.10
8269;DHT22;4174;48.304;16.364;2023-06-14T18:42:18;20.80;99.20
8269;DHT22;4174;48.304;16.364;2023-06-14T18:48:28;20.60;99.90
8269;DHT22;4174;48.304;16.364;2023-06-14T18:54:35;20.60;99.90
8269;DHT22;4174;48.304;16.364;2023-06-14T19:14:14;19.60;99.90
8269;DHT22;4174;48.304;16.364;2023-06-14T19:26:51;19.40;99.90
8269;DHT22;4174;48.304;16.364;2023-06-14T19:32:58;19.10;99.90
8269;DHT22;4174;48.304;16.364;2023-06-14T19:39:16;18.90;99.90
8269;DHT22;4174;48.304;16.364;2023-06-14T19:45:22;18.40;99.90
8269;DHT22;4174;48.304;16.364;2023-06-14T19:51:31;18.40;99.90
8269;DHT22;4174;48.304;16.364;2023-06-14T19:57:45;18.20;99.90
8269;DHT22;4174;48.304;16.364;2023-06-14T20:03:57;18.10;99.90
8269;DHT22;4174;48.304;16.364;2023-06-14T20:10:05;17.90;99.90
8269;DHT22;4174;48.304;16.364;2023-06-14T20:29:21;17.40;99.90
8269;DHT22;4174;48.304;16.364;2023-06-14T20:35:27;17.10;99.90
8269;DHT22;4174;48.304;16.364;2023-06-14T20:41:34;17.00;99.90
8269;DHT22;4174;48.304;16.364;2023-06-14T20:47:40;16.90;99.90
8269;DHT22;4174;48.304;16.364;2023-06-14T20:53:44;16.80;99.90
8269;DHT22;4174;48.304;16.364;2023-06-14T20:59:50;16.70;99.90
8269;DHT22;4174;48.304;16.364;2023-06-14T21:05:57;16.50;99.90
8269;DHT22;4174;48.304;16.364;2023-06-14T21:12:04;16.40;99.90
8269;DHT22;4174;48.304;16.364;2023-06-14T21:18:23;16.40;99.90
8269;DHT22;4174;48.304;16.364;2023-06-14T21:24:31;16.20;99.90
8269;DHT22;4174;48.304;16.364;2023-06-14T21:30:37;16.20;99.90
8269;DHT22;4174;48.304;16.364;2023-06-14T21:36:48;16.10;99.90
8269;DHT22;4174;48.304;16.364;2023-06-14T21:43:00;16.00;99.90
8269;DHT22;4174;48.304;16.364;2023-06-14T21:49:06;16.00;99.90
8269;DHT22;4174;48.304;16.364;2023-06-14T21:55:12;16.00;99.90
8269;DHT22;4174;48.304;16.364;2023-06-14T22:01:19;15.80;99.90
8269;DHT22;4174;48.304;16.364;2023-06-14T22:07:29;15.70;99.90
8269;DHT22;4174;48.304;16.364;2023-06-14T22:13:36;15.60;99.90
8269;DHT22;4174;48.304;16.364;2023-06-14T22:19:45;15.40;99.90
8269;DHT22;4174;48.304;16.364;2023-06-14T22:25:52;15.40;99.90
8269;DHT22;4174;48.304;16.364;2023-06-14T22:32:02;15.30;99.90
8269;DHT22;4174;48.304;16.364;2023-06-14T22:38:08;15.40;99.90
8269;DHT22;4174;48.304;16.364;2023-06-14T22:44:14;15.40;99.90
8269;DHT22;4174;48.304;16.364;2023-06-14T22:50:20;15.40;99.90
8269;DHT22;4174;48.304;16.364;2023-06-14T22:56:25;15.20;99.90
8269;DHT22;4174;48.304;16.364;2023-06-14T23:02:30;14.90;99.90
8269;DHT22;4174;48.304;16.364;2023-06-14T23:08:39;14.80;99.90
8269;DHT22;4174;48.304;16.364;2023-06-14T23:14:50;14.70;99.90
8269;DHT22;4174;48.304;16.364;2023-06-14T23:20:54;14.60;99.90
8269;DHT22;4174;48.304;16.364;2023-06-14T23:27:01;14.50;99.90
8269;DHT22;4174;48.304;16.364;2023-06-14T23:33:08;14.50;99.90
8269;DHT22;4174;48.304;16.364;2023-06-14T23:39:16;14.50;99.90
8269;DHT22;4174;48.304;16.364;2023-06-14T23:45:23;14.50;99.90
8269;DHT22;4174;48.304;16.364;2023-06-14T23:51:28;14.50;99.90
8269;DHT22;4174;48.304;16.364;2023-06-14T23:57:33;14.60;99.90
